sensor_id;sensor_type;location;lat;lon;timestamp;temperature;humidity
37310;DHT22;23195;47.744;7.358;2023-02-01T06:39:32;3.70;99.90
37310;DHT22;23195;47.744;7.358;2023-02-01T06:46:48;3.70;99.90
37310;DHT22;23195;47.744;7.358;2023-02-01T06:49:11;3.80;99.90
37310;DHT22;23195;47.744;7.358;2023-02-01T06:51:50;3.80;99.90
37310;DHT22;23195;47.744;7.358;2023-02-01T06:54:50;3.90;99.90
37310;DHT22;23195;47.744;7.358;2023-02-01T06:57:50;3.80;99.90
37310;DHT22;23195;47.744;7.358;2023-02-01T07:00:29;3.90;99.90
37310;DHT22;23195;47.744;7.358;2023-02-01T07:03:25;3.90;99.90
37310;DHT22;23195;47.744;7.358;2023-02-01T07:09:14;3.10;99.90
37310;DHT22;23195;47.744;7.358;2023-02-01T07:11:50;4.00;99.90
37310;DHT22;23195;47.744;7.358;2023-02-01T07:14:16;4.10;99.90
37310;DHT22;23195;47.744;7.358;2023-02-01T07:16:44;4.10;99.90
37310;DHT22;23195;47.744;7.358;2023-02-01T07:19:21;4.20;99.90
37310;DHT22;23195;47.744;7.358;2023-02-01T07:21:47;4.10;99.90
37310;DHT22;23195;47.744;7.358;2023-02-01T07:24:18;4.10;99.90
37310;DHT22;23195;47.744;7.358;2023-02-01T07:30:26;4.10;99.90
37310;DHT22;23195;47.744;7.358;2023-02-01T07:36:31;4.20;99.90
37310;DHT22;23195;47.744;7.358;2023-02-01T07:39:19;4.20;99.90
37310;DHT22;23195;47.744;7.358;2023-02-01T07:42:36;4.20;99.90
37310;DHT22;23195;47.744;7.358;2023-02-01T07:45:10;4.20;99.90
37310;DHT22;23195;47.744;7.358;2023-02-01T07:47:53;4.20;99.90
37310;DHT22;23195;47.744;7.358;2023-02-01T07:50:24;4.20;99.90
37310;DHT22;23195;47.744;7.358;2023-02-01T07:52:55;4.30;99.90
37310;DHT22;23195;47.744;7.358;2023-02-01T07:55:26;3.90;99.90
37310;DHT22;23195;47.744;7.358;2023-02-01T07:57:57;4.30;99.90
37310;DHT22;23195;47.744;7.358;2023-02-01T08:00:51;4.40;99.90
37310;DHT22;23195;47.744;7.358;2023-02-01T08:03:35;4.40;99.90
37310;DHT22;23195;47.744;7.358;2023-02-01T08:06:07;4.50;99.90
37310;DHT22;23195;47.744;7.358;2023-02-01T08:08:50;4.50;99.90
37310;DHT22;23195;47.744;7.358;2023-02-01T08:11:32;4.60;99.90
37310;DHT22;23195;47.744;7.358;2023-02-01T08:14:31;4.70;99.90
37310;DHT22;23195;47.744;7.358;2023-02-01T08:17:19;4.80;99.90
37310;DHT22;23195;47.744;7.358;2023-02-01T08:20:03;4.80;99.90
37310;DHT22;23195;47.744;7.358;2023-02-01T08:22:32;4.80;99.90
37310;DHT22;23195;47.744;7.358;2023-02-01T08:25:28;4.90;99.90
37310;DHT22;23195;47.744;7.358;2023-02-01T08:28:19;4.60;99.90
37310;DHT22;23195;47.744;7.358;2023-02-01T08:31:09;5.00;99.90
37310;DHT22;23195;47.744;7.358;2023-02-01T08:33:52;5.10;99.90
37310;DHT22;23195;47.744;7.358;2023-02-01T08:36:21;5.10;99.90
37310;DHT22;23195;47.744;7.358;2023-02-01T08:38:58;5.10;99.90
37310;DHT22;23195;47.744;7.358;2023-02-01T08:41:39;5.10;99.90
37310;DHT22;23195;47.744;7.358;2023-02-01T08:44:25;5.20;99.90
37310;DHT22;23195;47.744;7.358;2023-02-01T08:47:03;5.10;99.90
37310;DHT22;23195;47.744;7.358;2023-02-01T08:49:33;5.20;99.90
37310;DHT22;23195;47.744;7.358;2023-02-01T08:52:09;5.20;99.90
37310;DHT22;23195;47.744;7.358;2023-02-01T08:54:38;4.90;99.90
37310;DHT22;23195;47.744;7.358;2023-02-01T08:57:06;5.10;99.90
37310;DHT22;23195;47.744;7.358;2023-02-01T08:59:46;5.10;99.90
37310;DHT22;23195;47.744;7.358;2023-02-01T09:02:37;5.10;99.90
37310;DHT22;23195;47.744;7.358;2023-02-01T09:05:16;5.20;99.90
37310;DHT22;23195;47.744;7.358;2023-02-01T09:07:57;5.30;99.90
37310;DHT22;23195;47.744;7.358;2023-02-01T09:11:02;5.40;99.90
37310;DHT22;23195;47.744;7.358;2023-02-01T09:13:48;5.40;99.90
37310;DHT22;23195;47.744;7.358;2023-02-01T09:22:54;5.40;99.90
37310;DHT22;23195;47.744;7.358;2023-02-01T09:25:42;5.40;99.90
37310;DHT22;23195;47.744;7.358;2023-02-01T09:28:18;5.40;99.90
37310;DHT22;23195;47.744;7.358;2023-02-01T09:31:05;5.50;99.90
37310;DHT22;23195;47.744;7.358;2023-02-01T09:34:14;5.40;99.90
37310;DHT22;23195;47.744;7.358;2023-02-01T09:36:52;5.50;99.90
37310;DHT22;23195;47.744;7.358;2023-02-01T09:39:40;5.50;99.90
37310;DHT22;23195;47.744;7.358;2023-02-01T09:48:30;5.80;99.90
37310;DHT22;23195;47.744;7.358;2023-02-01T09:51:27;5.50;99.90
37310;DHT22;23195;47.744;7.358;2023-02-01T09:54:22;5.60;99.90
37310;DHT22;23195;47.744;7.358;2023-02-01T10:00:47;5.40;99.90
37310;DHT22;23195;47.744;7.358;2023-02-01T10:03:24;6.10;99.90
37310;DHT22;23195;47.744;7.358;2023-02-01T10:27:40;7.40;99.90
37310;DHT22;23195;47.744;7.358;2023-02-01T10:30:25;7.60;99.90
37310;DHT22;23195;47.744;7.358;2023-02-01T10:33:22;7.50;99.90
37310;DHT22;23195;47.744;7.358;2023-02-01T10:39:14;7.30;99.90
37310;DHT22;23195;47.744;7.358;2023-02-01T10:41:57;7.30;99.90
37310;DHT22;23195;47.744;7.358;2023-02-01T10:44:31;7.40;99.90
37310;DHT22;23195;47.744;7.358;2023-02-01T10:47:24;7.50;99.90
37310;DHT22;23195;47.744;7.358;2023-02-01T10:56:52;7.20;99.90
37310;DHT22;23195;47.744;7.358;2023-02-01T10:59:25;7.90;99.90
37310;DHT22;23195;47.744;7.358;2023-02-01T11:02:32;6.10;99.90
37310;DHT22;23195;47.744;7.358;2023-02-01T11:05:18;7.60;99.90
37310;DHT22;23195;47.744;7.358;2023-02-01T11:07:58;7.50;99.90
37310;DHT22;23195;47.744;7.358;2023-02-01T11:10:42;7.40;99.90
37310;DHT22;23195;47.744;7.358;2023-02-01T11:13:28;7.40;99.90
37310;DHT22;23195;47.744;7.358;2023-02-01T11:15:59;7.40;99.90
37310;DHT22;23195;47.744;7.358;2023-02-01T11:21:34;7.60;99.90
37310;DHT22;23195;47.744;7.358;2023-02-01T11:24:25;7.30;99.90
37310;DHT22;23195;47.744;7.358;2023-02-01T11:27:02;7.50;99.90
37310;DHT22;23195;47.744;7.358;2023-02-01T11:29:59;7.60;99.90
37310;DHT22;23195;47.744;7.358;2023-02-01T11:32:39;7.50;99.90
37310;DHT22;23195;47.744;7.358;2023-02-01T11:35:13;7.50;99.90
37310;DHT22;23195;47.744;7.358;2023-02-01T11:38:00;7.40;99.90
37310;DHT22;23195;47.744;7.358;2023-02-01T11:40:36;7.50;99.90
37310;DHT22;23195;47.744;7.358;2023-02-01T11:43:34;7.50;99.90
37310;DHT22;23195;47.744;7.358;2023-02-01T11:46:19;7.60;99.90
37310;DHT22;23195;47.744;7.358;2023-02-01T11:49:18;8.10;99.90
37310;DHT22;23195;47.744;7.358;2023-02-01T12:06:53;7.70;99.90
37310;DHT22;23195;47.744;7.358;2023-02-01T12:43:56;7.50;99.90
37310;DHT22;23195;47.744;7.358;2023-02-01T12:46:41;7.50;99.90
37310;DHT22;23195;47.744;7.358;2023-02-01T12:49:48;7.50;99.90
37310;DHT22;23195;47.744;7.358;2023-02-01T12:52:46;7.50;99.90
37310;DHT22;23195;47.744;7.358;2023-02-01T12:55:42;7.40;99.90
37310;DHT22;23195;47.744;7.358;2023-02-01T12:58:38;7.50;99.90
37310;DHT22;23195;47.744;7.358;2023-02-01T13:01:19;7.50;99.90
37310;DHT22;23195;47.744;7.358;2023-02-01T13:06:41;7.00;99.90
37310;DHT22;23195;47.744;7.358;2023-02-01T13:09:41;7.40;99.90
37310;DHT22;23195;47.744;7.358;2023-02-01T13:12:50;7.40;99.90
37310;DHT22;23195;47.744;7.358;2023-02-01T13:22:00;7.40;99.90
37310;DHT22;23195;47.744;7.358;2023-02-01T13:24:59;7.50;99.90
37310;DHT22;23195;47.744;7.358;2023-02-01T13:42:24;8.20;99.90
37310;DHT22;23195;47.744;7.358;2023-02-01T13:48:06;7.60;99.90
37310;DHT22;23195;47.744;7.358;2023-02-01T13:50:39;7.60;99.90
37310;DHT22;23195;47.744;7.358;2023-02-01T13:56:03;7.60;99.90
37310;DHT22;23195;47.744;7.358;2023-02-01T13:58:40;7.50;99.90
37310;DHT22;23195;47.744;7.358;2023-02-01T14:03:50;7.40;99.90
37310;DHT22;23195;47.744;7.358;2023-02-01T14:11:58;7.40;99.90
37310;DHT22;23195;47.744;7.358;2023-02-01T14:23:13;7.40;99.90
37310;DHT22;23195;47.744;7.358;2023-02-01T14:26:01;7.40;99.90
37310;DHT22;23195;47.744;7.358;2023-02-01T14:28:45;7.40;99.90
37310;DHT22;23195;47.744;7.358;2023-02-01T14:31:39;7.30;99.90
37310;DHT22;23195;47.744;7.358;2023-02-01T14:34:54;7.30;99.90
37310;DHT22;23195;47.744;7.358;2023-02-01T14:37:37;7.20;99.90
37310;DHT22;23195;47.744;7.358;2023-02-01T14:40:49;7.20;99.90
37310;DHT22;23195;47.744;7.358;2023-02-01T14:50:03;7.10;99.90
37310;DHT22;23195;47.744;7.358;2023-02-01T14:56:07;7.10;99.90
37310;DHT22;23195;47.744;7.358;2023-02-01T14:59:12;7.80;99.90
37310;DHT22;23195;47.744;7.358;2023-02-01T15:02:23;7.10;99.90
37310;DHT22;23195;47.744;7.358;2023-02-01T15:05:12;7.10;99.90
37310;DHT22;23195;47.744;7.358;2023-02-01T15:08:28;7.10;99.90
37310;DHT22;23195;47.744;7.358;2023-02-01T15:11:01;7.10;99.90
37310;DHT22;23195;47.744;7.358;2023-02-01T15:13:36;7.60;99.90
37310;DHT22;23195;47.744;7.358;2023-02-01T15:16:26;7.10;99.90
37310;DHT22;23195;47.744;7.358;2023-02-01T15:22:19;6.90;99.90
37310;DHT22;23195;47.744;7.358;2023-02-01T15:24:58;6.90;99.90
37310;DHT22;23195;47.744;7.358;2023-02-01T15:27:49;6.80;99.90
37310;DHT22;23195;47.744;7.358;2023-02-01T15:30:33;6.80;99.90
37310;DHT22;23195;47.744;7.358;2023-02-01T15:39:27;6.80;99.90
37310;DHT22;23195;47.744;7.358;2023-02-01T15:42:15;6.40;99.90
37310;DHT22;23195;47.744;7.358;2023-02-01T15:44:57;6.80;99.90
37310;DHT22;23195;47.744;7.358;2023-02-01T15:47:34;6.80;99.90
37310;DHT22;23195;47.744;7.358;2023-02-01T15:50:17;6.80;99.90
37310;DHT22;23195;47.744;7.358;2023-02-01T15:52:49;6.90;99.90
37310;DHT22;23195;47.744;7.358;2023-02-01T15:55:41;6.90;99.90
37310;DHT22;23195;47.744;7.358;2023-02-01T15:58:19;6.80;99.90
37310;DHT22;23195;47.744;7.358;2023-02-01T16:04:04;6.80;99.90
37310;DHT22;23195;47.744;7.358;2023-02-01T16:06:58;6.70;99.90
37310;DHT22;23195;47.744;7.358;2023-02-01T16:09:47;6.70;99.90
37310;DHT22;23195;47.744;7.358;2023-02-01T16:12:52;6.00;99.90
37310;DHT22;23195;47.744;7.358;2023-02-01T16:15:29;6.60;99.90
37310;DHT22;23195;47.744;7.358;2023-02-01T16:17:58;6.60;99.90
37310;DHT22;23195;47.744;7.358;2023-02-01T16:20:24;6.60;99.90
37310;DHT22;23195;47.744;7.358;2023-02-01T16:23:16;6.20;99.90
37310;DHT22;23195;47.744;7.358;2023-02-01T16:25:55;6.50;99.90
37310;DHT22;23195;47.744;7.358;2023-02-01T16:35:44;6.30;99.90
37310;DHT22;23195;47.744;7.358;2023-02-01T16:38:23;6.30;99.90
37310;DHT22;23195;47.744;7.358;2023-02-01T16:41:28;6.80;99.90
37310;DHT22;23195;47.744;7.358;2023-02-01T16:44:10;6.00;99.90
37310;DHT22;23195;47.744;7.358;2023-02-01T16:47:08;6.10;99.90
37310;DHT22;23195;47.744;7.358;2023-02-01T17:00:07;6.00;99.90
37310;DHT22;23195;47.744;7.358;2023-02-01T17:29:43;6.20;99.90
37310;DHT22;23195;47.744;7.358;2023-02-01T20:40:36;5.30;99.90
37310;DHT22;23195;47.744;7.358;2023-02-01T20:58:17;5.20;99.90
37310;DHT22;23195;47.744;7.358;2023-02-01T23:16:11;5.50;99.90
37310;DHT22;23195;47.744;7.358;2023-02-01T23:29:10;5.30;99.90
